sensor_id;sensor_type;location;lat;lon;timestamp;temperature;humidity
12374;DHT22;6251;51.762;8.660;2023-06-24T01:02:45;14.60;99.90
12374;DHT22;6251;51.762;8.660;2023-06-24T01:12:48;14.50;99.90
12374;DHT22;6251;51.762;8.660;2023-06-24T02:54:36;13.70;99.90
12374;DHT22;6251;51.762;8.660;2023-06-24T04:06:01;13.40;99.90
12374;DHT22;6251;51.762;8.660;2023-06-24T04:16:02;13.50;99.90
12374;DHT22;6251;51.762;8.660;2023-06-24T04:26:02;13.50;99.90
12374;DHT22;6251;51.762;8.660;2023-06-24T04:36:03;13.60;99.90
12374;DHT22;6251;51.762;8.660;2023-06-24T04:46:04;13.70;99.90
12374;DHT22;6251;51.762;8.660;2023-06-24T04:56:05;13.80;99.90
12374;DHT22;6251;51.762;8.660;2023-06-24T05:06:05;14.00;99.90
12374;DHT22;6251;51.762;8.660;2023-06-24T05:16:06;14.20;99.90
12374;DHT22;6251;51.762;8.660;2023-06-24T05:26:06;14.40;99.90
12374;DHT22;6251;51.762;8.660;2023-06-24T05:36:07;14.50;99.90
12374;DHT22;6251;51.762;8.660;2023-06-24T05:46:08;14.80;99.90
12374;DHT22;6251;51.762;8.660;2023-06-24T05:56:08;15.00;99.90
12374;DHT22;6251;51.762;8.660;2023-06-24T06:06:09;15.30;99.90
12374;DHT22;6251;51.762;8.660;2023-06-24T06:16:09;15.50;99.90
12374;DHT22;6251;51.762;8.660;2023-06-24T06:26:10;15.80;99.90
12374;DHT22;6251;51.762;8.660;2023-06-24T06:36:11;16.10;99.90
12374;DHT22;6251;51.762;8.660;2023-06-24T06:46:12;16.40;99.90
12374;DHT22;6251;51.762;8.660;2023-06-24T06:56:22;16.70;99.90
12374;DHT22;6251;51.762;8.660;2023-06-24T07:06:23;17.10;99.90
12374;DHT22;6251;51.762;8.660;2023-06-24T07:16:23;17.40;99.90
12374;DHT22;6251;51.762;8.660;2023-06-24T07:26:24;17.70;99.90
12374;DHT22;6251;51.762;8.660;2023-06-24T07:36:24;18.10;99.90
12374;DHT22;6251;51.762;8.660;2023-06-24T07:46:25;18.40;99.90
12374;DHT22;6251;51.762;8.660;2023-06-24T07:56:28;18.80;99.90
12374;DHT22;6251;51.762;8.660;2023-06-24T08:06:28;19.10;99.90
12374;DHT22;6251;51.762;8.660;2023-06-24T08:16:29;19.60;99.90
12374;DHT22;6251;51.762;8.660;2023-06-24T08:26:29;20.00;99.90
12374;DHT22;6251;51.762;8.660;2023-06-24T08:36:49;20.40;99.90
12374;DHT22;6251;51.762;8.660;2023-06-24T08:46:49;20.70;99.90
12374;DHT22;6251;51.762;8.660;2023-06-24T08:56:50;21.00;99.90
12374;DHT22;6251;51.762;8.660;2023-06-24T09:06:51;21.40;99.90
12374;DHT22;6251;51.762;8.660;2023-06-24T09:26:56;21.90;99.90
12374;DHT22;6251;51.762;8.660;2023-06-24T09:36:59;22.00;99.90
12374;DHT22;6251;51.762;8.660;2023-06-24T09:46:59;22.10;99.90
12374;DHT22;6251;51.762;8.660;2023-06-24T09:57:02;22.40;99.90
12374;DHT22;6251;51.762;8.660;2023-06-24T10:07:04;22.70;99.90
12374;DHT22;6251;51.762;8.660;2023-06-24T10:17:04;22.90;99.90
12374;DHT22;6251;51.762;8.660;2023-06-24T10:27:08;23.30;99.90
12374;DHT22;6251;51.762;8.660;2023-06-24T10:47:11;24.10;99.90
12374;DHT22;6251;51.762;8.660;2023-06-24T10:57:12;24.80;99.90
12374;DHT22;6251;51.762;8.660;2023-06-24T11:07:14;25.20;99.90
12374;DHT22;6251;51.762;8.660;2023-06-24T11:17:14;25.40;99.90
12374;DHT22;6251;51.762;8.660;2023-06-24T11:27:15;25.80;99.90
12374;DHT22;6251;51.762;8.660;2023-06-24T11:37:18;25.60;99.40
12374;DHT22;6251;51.762;8.660;2023-06-24T11:47:23;26.00;99.90
12374;DHT22;6251;51.762;8.660;2023-06-24T11:57:47;26.20;99.90
12374;DHT22;6251;51.762;8.660;2023-06-24T12:08:03;26.20;99.90
12374;DHT22;6251;51.762;8.660;2023-06-24T12:18:05;26.10;99.90
12374;DHT22;6251;51.762;8.660;2023-06-24T12:28:08;26.30;99.90
12374;DHT22;6251;51.762;8.660;2023-06-24T12:38:09;26.30;99.90
12374;DHT22;6251;51.762;8.660;2023-06-24T12:48:10;26.50;99.90
12374;DHT22;6251;51.762;8.660;2023-06-24T12:58:12;27.00;99.70
12374;DHT22;6251;51.762;8.660;2023-06-24T13:08:13;27.10;99.70
12374;DHT22;6251;51.762;8.660;2023-06-24T13:18:14;26.70;94.80
12374;DHT22;6251;51.762;8.660;2023-06-24T13:28:14;26.60;95.50
12374;DHT22;6251;51.762;8.660;2023-06-24T13:38:15;26.90;97.40
12374;DHT22;6251;51.762;8.660;2023-06-24T13:48:15;27.50;97.70
12374;DHT22;6251;51.762;8.660;2023-06-24T13:58:16;28.10;97.00
12374;DHT22;6251;51.762;8.660;2023-06-24T14:08:17;28.40;95.60
12374;DHT22;6251;51.762;8.660;2023-06-24T14:18:18;28.40;96.70
12374;DHT22;6251;51.762;8.660;2023-06-24T14:28:19;28.50;93.30
12374;DHT22;6251;51.762;8.660;2023-06-24T14:38:20;28.30;94.50
12374;DHT22;6251;51.762;8.660;2023-06-24T14:48:21;28.40;95.00
12374;DHT22;6251;51.762;8.660;2023-06-24T14:58:21;28.50;93.90
12374;DHT22;6251;51.762;8.660;2023-06-24T15:08:22;29.40;95.90
12374;DHT22;6251;51.762;8.660;2023-06-24T15:18:25;29.60;91.30
12374;DHT22;6251;51.762;8.660;2023-06-24T15:28:26;29.10;86.60
12374;DHT22;6251;51.762;8.660;2023-06-24T15:38:27;29.50;86.60
12374;DHT22;6251;51.762;8.660;2023-06-24T15:48:27;34.50;76.10
12374;DHT22;6251;51.762;8.660;2023-06-24T15:58:28;38.30;64.20
12374;DHT22;6251;51.762;8.660;2023-06-24T16:08:29;39.70;54.10
12374;DHT22;6251;51.762;8.660;2023-06-24T16:18:29;41.10;51.40
12374;DHT22;6251;51.762;8.660;2023-06-24T16:28:30;42.50;46.60
12374;DHT22;6251;51.762;8.660;2023-06-24T16:38:30;41.20;50.00
12374;DHT22;6251;51.762;8.660;2023-06-24T16:48:31;41.90;45.70
12374;DHT22;6251;51.762;8.660;2023-06-24T16:58:31;41.00;49.60
12374;DHT22;6251;51.762;8.660;2023-06-24T17:08:33;41.00;48.30
12374;DHT22;6251;51.762;8.660;2023-06-24T17:18:34;41.00;49.10
12374;DHT22;6251;51.762;8.660;2023-06-24T17:28:34;40.60;45.50
12374;DHT22;6251;51.762;8.660;2023-06-24T17:38:35;40.00;47.80
12374;DHT22;6251;51.762;8.660;2023-06-24T17:48:40;38.70;52.50
12374;DHT22;6251;51.762;8.660;2023-06-24T17:58:41;36.30;61.80
12374;DHT22;6251;51.762;8.660;2023-06-24T18:08:43;34.40;68.30
12374;DHT22;6251;51.762;8.660;2023-06-24T18:18:43;32.80;66.80
12374;DHT22;6251;51.762;8.660;2023-06-24T18:28:44;31.70;77.10
12374;DHT22;6251;51.762;8.660;2023-06-24T18:38:44;30.90;78.60
12374;DHT22;6251;51.762;8.660;2023-06-24T18:48:45;30.10;83.90
12374;DHT22;6251;51.762;8.660;2023-06-24T18:58:46;28.80;88.50
12374;DHT22;6251;51.762;8.660;2023-06-24T19:08:46;27.80;90.80
12374;DHT22;6251;51.762;8.660;2023-06-24T19:18:52;26.90;91.10
12374;DHT22;6251;51.762;8.660;2023-06-24T19:28:53;26.10;93.60
12374;DHT22;6251;51.762;8.660;2023-06-24T19:38:53;25.40;96.40
12374;DHT22;6251;51.762;8.660;2023-06-24T19:48:54;24.90;99.90
12374;DHT22;6251;51.762;8.660;2023-06-24T19:58:56;24.30;99.90
12374;DHT22;6251;51.762;8.660;2023-06-24T20:08:56;23.80;99.90
12374;DHT22;6251;51.762;8.660;2023-06-24T20:18:57;23.40;99.90
12374;DHT22;6251;51.762;8.660;2023-06-24T20:28:58;22.90;99.90
12374;DHT22;6251;51.762;8.660;2023-06-24T20:38:58;22.50;99.90
12374;DHT22;6251;51.762;8.660;2023-06-24T20:48:59;22.20;99.90
12374;DHT22;6251;51.762;8.660;2023-06-24T20:59:02;21.90;99.90
12374;DHT22;6251;51.762;8.660;2023-06-24T23:02:32;19.20;99.90
12374;DHT22;6251;51.762;8.660;2023-06-24T23:12:33;19.10;99.90
